Boca Grande, Florida
Current Conditions -  °F | °C
As of 4:53 AM on Friday 31 Oct 2014 (Local Time) from KPGD Reporting Station
Clear Clear  
Wind Chill: 69°   Ceiling: Unl
Heat Index: 69°   Visibility: 10mi
Dew Point: 66°   Wind: 0mph
Humidity: 90%   Direction: NA
Pressure: 29.86"   Gusts: NA
Location:  26.75°N, 82.26°W
Report Text: KPGD 310853Z AUTO 00000KT 10SM CLR 21/19 A2986 RMK AO2 LTG DSNT W SLP111 T02060189 55010 $
Loading
Personal Weather Stations






























Interactive Weather Map
Tropical Storm Tracking
New forecast layout! Learn more

10-Day Weather Forecast

Advertisements
Track Severe Weather on mobile